createdAt,value
2018-11-12T00:00:09.702Z,995.97
2018-11-12T00:01:09.732Z,995.96
2018-11-12T00:02:09.760Z,995.96
2018-11-12T00:03:09.790Z,995.94
2018-11-12T00:04:09.817Z,995.93
2018-11-12T00:05:09.847Z,995.87
2018-11-12T00:06:09.875Z,995.86
2018-11-12T00:07:09.904Z,995.89
2018-11-12T00:08:09.932Z,995.86
2018-11-12T00:09:09.962Z,995.88
2018-11-12T00:10:09.991Z,995.88
2018-11-12T00:11:10.020Z,995.87
2018-11-12T00:12:10.047Z,995.80
2018-11-12T00:13:10.078Z,995.83
2018-11-12T00:14:10.105Z,995.80
2018-11-12T00:15:10.134Z,995.80
2018-11-12T00:16:10.162Z,995.86
2018-11-12T00:17:10.191Z,995.83
2018-11-12T00:18:10.221Z,995.75
2018-11-12T00:19:10.250Z,995.73
2018-11-12T00:20:10.280Z,995.75
2018-11-12T00:21:10.308Z,995.74
2018-11-12T00:22:10.340Z,995.75
2018-11-12T00:23:10.867Z,995.78
2018-11-12T00:24:10.394Z,995.80
2018-11-12T00:25:10.422Z,995.80
2018-11-12T00:26:10.451Z,995.79
2018-11-12T00:27:10.480Z,995.77
2018-11-12T00:28:10.510Z,995.82
2018-11-12T00:29:10.538Z,995.80
2018-11-12T00:30:10.572Z,995.80
2018-11-12T00:31:10.600Z,995.80
2018-11-12T00:32:10.624Z,995.77
2018-11-12T00:33:10.654Z,995.75
2018-11-12T00:34:10.684Z,995.83
2018-11-12T00:35:10.713Z,995.81
2018-11-12T00:36:10.741Z,995.82
2018-11-12T00:37:10.772Z,995.79
2018-11-12T00:38:10.800Z,995.81
2018-11-12T00:39:10.834Z,995.77
2018-11-12T00:40:10.859Z,995.77
2018-11-12T00:41:10.889Z,995.78
2018-11-12T00:42:10.917Z,995.77
2018-11-12T00:43:10.954Z,995.75
2018-11-12T00:44:10.976Z,995.74
2018-11-12T00:45:11.007Z,995.75
2018-11-12T00:46:11.036Z,995.70
2018-11-12T00:47:11.064Z,995.74
2018-11-12T00:48:11.095Z,995.72
2018-11-12T00:49:11.140Z,995.69
2018-11-12T00:50:11.152Z,995.73
2018-11-12T00:51:11.181Z,995.69
2018-11-12T00:52:11.209Z,995.72
2018-11-12T00:53:11.240Z,995.72
2018-11-12T00:54:11.271Z,995.71
2018-11-12T00:55:11.298Z,995.71
2018-11-12T00:56:11.327Z,995.70
2018-11-12T00:57:11.357Z,995.68
2018-11-12T00:58:11.385Z,995.67
2018-11-12T00:59:11.415Z,995.65
2018-11-12T01:00:11.444Z,995.67
2018-11-12T01:01:11.475Z,995.72
2018-11-12T01:02:11.506Z,995.73
2018-11-12T01:03:11.536Z,995.68
2018-11-12T01:04:11.569Z,995.70
2018-11-12T01:05:11.591Z,995.69
2018-11-12T01:06:11.622Z,995.68
2018-11-12T01:07:11.650Z,995.69
2018-11-12T01:08:11.680Z,995.70
2018-11-12T01:09:11.709Z,995.69
2018-11-12T01:10:11.737Z,995.70
2018-11-12T01:11:11.768Z,995.69
2018-11-12T01:12:11.795Z,995.74
2018-11-12T01:13:11.825Z,995.69
2018-11-12T01:14:11.855Z,995.68
2018-11-12T01:15:11.883Z,995.66
2018-11-12T01:16:11.979Z,995.59
2018-11-12T01:17:11.941Z,995.65
2018-11-12T01:18:11.972Z,995.63
2018-11-12T01:19:12.001Z,995.69
2018-11-12T01:20:12.031Z,995.71
2018-11-12T01:21:12.057Z,995.70
2018-11-12T01:22:12.088Z,995.69
2018-11-12T01:23:12.122Z,995.73
2018-11-12T01:24:12.146Z,995.67
2018-11-12T01:25:12.174Z,995.69
2018-11-12T01:26:12.214Z,995.66
2018-11-12T01:27:12.234Z,995.63
2018-11-12T01:28:12.262Z,995.62
2018-11-12T01:29:12.291Z,995.65
2018-11-12T01:30:12.320Z,995.63
2018-11-12T01:31:12.350Z,995.67
2018-11-12T01:32:12.379Z,995.69
2018-11-12T01:33:12.411Z,995.71
2018-11-12T01:34:12.436Z,995.69
2018-11-12T01:35:12.467Z,995.67
2018-11-12T01:36:12.493Z,995.61
2018-11-12T01:37:12.523Z,995.64
2018-11-12T01:38:12.553Z,995.65
2018-11-12T01:39:12.584Z,995.67
2018-11-12T01:40:12.611Z,995.73
2018-11-12T01:41:12.644Z,995.69
2018-11-12T01:42:12.723Z,995.72
2018-11-12T01:43:12.698Z,995.72
2018-11-12T01:44:12.728Z,995.71
2018-11-12T01:45:12.755Z,995.73
2018-11-12T01:46:12.785Z,995.68
2018-11-12T01:47:12.814Z,995.63
2018-11-12T01:48:12.843Z,995.67
2018-11-12T01:49:12.873Z,995.64
2018-11-12T01:50:12.902Z,995.65
2018-11-12T01:51:12.932Z,995.68
2018-11-12T01:52:12.960Z,995.65
2018-11-12T01:53:12.988Z,995.65
2018-11-12T01:54:13.018Z,995.65
2018-11-12T01:55:13.047Z,995.64
2018-11-12T01:56:13.076Z,995.66
2018-11-12T01:57:13.105Z,995.59
2018-11-12T01:58:13.135Z,995.65
2018-11-12T01:59:13.163Z,995.62
2018-11-12T02:00:13.191Z,995.61
2018-11-12T02:01:13.232Z,995.60
2018-11-12T02:02:13.250Z,995.59
2018-11-12T02:03:13.280Z,995.57
2018-11-12T02:04:13.310Z,995.57
2018-11-12T02:05:13.338Z,995.58
2018-11-12T02:06:13.366Z,995.56
2018-11-12T02:07:13.396Z,995.56
2018-11-12T02:08:13.426Z,995.55
2018-11-12T02:09:13.459Z,995.47
2018-11-12T02:10:13.485Z,995.44
2018-11-12T02:11:13.512Z,995.47
2018-11-12T02:12:13.539Z,995.44
2018-11-12T02:13:13.568Z,995.46
2018-11-12T02:14:13.599Z,995.44
2018-11-12T02:15:13.628Z,995.44
2018-11-12T02:16:13.662Z,995.41
2018-11-12T02:17:13.688Z,995.33
2018-11-12T02:18:13.717Z,995.26
2018-11-12T02:19:13.742Z,995.26
2018-11-12T02:20:13.771Z,995.27
2018-11-12T02:21:13.799Z,995.34
2018-11-12T02:22:13.829Z,995.33
2018-11-12T02:23:13.859Z,995.35
2018-11-12T02:24:13.888Z,995.34
2018-11-12T02:25:13.916Z,995.35
2018-11-12T02:26:13.946Z,995.29
2018-11-12T02:27:13.975Z,995.28
2018-11-12T02:28:14.002Z,995.29
2018-11-12T02:29:14.034Z,995.32
2018-11-12T02:30:14.063Z,995.40
2018-11-12T02:31:14.092Z,995.39
2018-11-12T02:32:14.120Z,995.39
2018-11-12T02:33:14.306Z,995.34
2018-11-12T02:34:14.178Z,995.34
2018-11-12T02:35:14.208Z,995.33
2018-11-12T02:36:14.237Z,995.31
2018-11-12T02:37:14.267Z,995.31
2018-11-12T02:38:14.294Z,995.31
2018-11-12T02:39:14.326Z,995.31
2018-11-12T02:40:14.354Z,995.28
2018-11-12T02:41:14.384Z,995.32
2018-11-12T02:42:14.413Z,995.34
2018-11-12T02:43:14.440Z,995.30
2018-11-12T02:44:14.467Z,995.35
2018-11-12T02:45:14.507Z,995.34
2018-11-12T02:46:14.527Z,995.35
2018-11-12T02:47:14.557Z,995.35
2018-11-12T02:48:14.585Z,995.29
2018-11-12T02:49:14.619Z,995.28
2018-11-12T02:50:14.644Z,995.34
2018-11-12T02:51:14.673Z,995.29
2018-11-12T02:52:14.701Z,995.24
2018-11-12T02:53:14.733Z,995.29
2018-11-12T02:54:14.762Z,995.36
2018-11-12T02:55:14.790Z,995.41
2018-11-12T02:56:14.828Z,995.39
2018-11-12T02:57:14.861Z,995.30
2018-11-12T02:58:14.878Z,995.29
2018-11-12T02:59:14.907Z,995.24
2018-11-12T03:00:14.937Z,995.20
2018-11-12T03:01:14.966Z,995.27
2018-11-12T03:02:14.994Z,995.27
2018-11-12T03:03:15.025Z,995.21
2018-11-12T03:04:15.052Z,995.13
2018-11-12T03:05:15.081Z,995.10
2018-11-12T03:06:17.665Z,995.14
2018-11-12T03:07:15.153Z,995.15
2018-11-12T03:08:15.169Z,995.16
2018-11-12T03:09:15.198Z,995.16
2018-11-12T03:10:15.229Z,995.12
2018-11-12T03:11:15.259Z,995.12
2018-11-12T03:12:15.287Z,995.08
2018-11-12T03:13:15.317Z,995.08
2018-11-12T03:14:15.351Z,995.06
2018-11-12T03:15:15.376Z,995.16
2018-11-12T03:16:15.412Z,995.20
2018-11-12T03:17:15.437Z,995.16
2018-11-12T03:18:15.466Z,995.09
2018-11-12T03:19:15.495Z,995.05
2018-11-12T03:20:15.522Z,994.97
2018-11-12T03:21:15.552Z,994.98
2018-11-12T03:22:15.589Z,995.07
2018-11-12T03:23:15.612Z,995.13
2018-11-12T03:24:15.639Z,995.21
2018-11-12T03:25:15.670Z,995.13
2018-11-12T03:26:15.700Z,995.10
2018-11-12T03:27:15.729Z,995.04
2018-11-12T03:28:15.758Z,995.01
2018-11-12T03:29:15.788Z,995.01
2018-11-12T03:30:15.824Z,995.10
2018-11-12T03:31:15.848Z,995.08
2018-11-12T03:32:15.875Z,995.03
2018-11-12T03:33:15.905Z,995.03
2018-11-12T03:34:15.936Z,994.99
2018-11-12T03:35:15.965Z,994.97
2018-11-12T03:36:15.992Z,995.01
2018-11-12T03:37:16.026Z,994.97
2018-11-12T03:38:16.051Z,994.94
2018-11-12T03:39:16.082Z,994.87
2018-11-12T03:40:16.125Z,994.90
2018-11-12T03:41:16.141Z,994.88
2018-11-12T03:42:16.174Z,994.94
2018-11-12T03:43:16.199Z,994.99
2018-11-12T03:44:16.228Z,994.97
2018-11-12T03:45:16.257Z,994.93
2018-11-12T03:46:16.286Z,994.96
2018-11-12T03:47:16.317Z,994.93
2018-11-12T03:48:16.345Z,994.93
2018-11-12T03:49:16.374Z,994.94
2018-11-12T03:50:16.404Z,995.03
2018-11-12T03:51:16.433Z,995.06
2018-11-12T03:52:16.461Z,995.05
2018-11-12T03:53:16.490Z,995.03
2018-11-12T03:54:16.519Z,995.01
2018-11-12T03:55:16.551Z,995.01
2018-11-12T03:56:16.581Z,995.06
2018-11-12T03:57:16.607Z,995.10
2018-11-12T03:58:16.638Z,995.08
2018-11-12T03:59:16.666Z,994.98
2018-11-12T04:00:16.730Z,994.91
2018-11-12T04:01:16.724Z,994.88
2018-11-12T04:02:16.757Z,994.94
2018-11-12T04:03:16.783Z,995.00
2018-11-12T04:04:16.814Z,995.03
2018-11-12T04:05:16.841Z,995.01
2018-11-12T04:06:16.869Z,995.00
2018-11-12T04:07:16.900Z,994.99
2018-11-12T04:08:16.929Z,994.99
2018-11-12T04:09:16.957Z,994.99
2018-11-12T04:10:16.985Z,995.00
2018-11-12T04:11:17.016Z,994.99
2018-11-12T04:12:17.045Z,994.98
2018-11-12T04:13:17.076Z,994.99
2018-11-12T04:14:17.103Z,994.95
2018-11-12T04:15:17.133Z,994.96
2018-11-12T04:16:17.160Z,994.90
2018-11-12T04:17:17.189Z,994.89
2018-11-12T04:18:17.218Z,994.92
2018-11-12T04:19:17.247Z,994.87
2018-11-12T04:20:17.281Z,994.92
2018-11-12T04:21:17.309Z,994.94
2018-11-12T04:22:17.333Z,995.00
2018-11-12T04:23:17.364Z,994.94
2018-11-12T04:24:17.391Z,994.96
2018-11-12T04:25:17.420Z,994.95
2018-11-12T04:26:17.448Z,994.96
2018-11-12T04:27:17.483Z,994.93
2018-11-12T04:28:17.505Z,994.92
2018-11-12T04:29:17.534Z,994.99
2018-11-12T04:30:17.564Z,995.09
2018-11-12T04:31:17.593Z,995.15
2018-11-12T04:32:17.622Z,995.21
2018-11-12T04:33:17.650Z,995.15
2018-11-12T04:34:17.680Z,995.17
2018-11-12T04:35:17.714Z,995.21
2018-11-12T04:36:17.750Z,995.20
2018-11-12T04:37:17.766Z,995.29
2018-11-12T04:38:17.796Z,995.27
2018-11-12T04:39:17.824Z,995.23
2018-11-12T04:40:17.860Z,995.18
2018-11-12T04:41:17.880Z,995.17
2018-11-12T04:42:17.910Z,995.18
2018-11-12T04:43:17.941Z,995.16
2018-11-12T04:44:17.967Z,995.20
2018-11-12T04:45:18.003Z,995.19
2018-11-12T04:46:18.024Z,995.15
2018-11-12T04:47:18.054Z,995.14
2018-11-12T04:48:18.081Z,995.14
2018-11-12T04:49:18.110Z,995.16
2018-11-12T04:50:18.141Z,995.14
2018-11-12T04:51:18.170Z,995.15
2018-11-12T04:52:18.200Z,995.14
2018-11-12T04:53:18.224Z,995.15
2018-11-12T04:54:18.259Z,995.16
2018-11-12T04:55:18.368Z,995.10
2018-11-12T04:56:18.310Z,995.03
2018-11-12T04:57:18.339Z,995.05
2018-11-12T04:58:18.367Z,995.05
2018-11-12T04:59:18.397Z,995.05
2018-11-12T05:00:18.429Z,995.03
2018-11-12T05:01:18.453Z,994.97
2018-11-12T05:02:18.487Z,994.98
2018-11-12T05:03:18.511Z,994.98
2018-11-12T05:04:18.539Z,994.98
2018-11-12T05:05:18.569Z,994.97
2018-11-12T05:06:18.597Z,994.95
2018-11-12T05:07:18.636Z,994.95
2018-11-12T05:08:18.654Z,995.00
2018-11-12T05:09:18.681Z,994.97
2018-11-12T05:10:18.719Z,995.08
2018-11-12T05:11:18.739Z,995.14
2018-11-12T05:12:18.768Z,995.15
2018-11-12T05:13:18.796Z,995.11
2018-11-12T05:14:18.823Z,995.14
2018-11-12T05:15:18.857Z,995.16
2018-11-12T05:16:18.880Z,995.20
2018-11-12T05:17:18.908Z,995.23
2018-11-12T05:18:18.938Z,995.29
2018-11-12T05:19:18.966Z,995.29
2018-11-12T05:20:18.995Z,995.26
2018-11-12T05:21:19.023Z,995.15
2018-11-12T05:22:19.053Z,995.18
2018-11-12T05:23:19.080Z,995.25
2018-11-12T05:24:19.108Z,995.33
2018-11-12T05:25:19.137Z,995.38
2018-11-12T05:26:19.166Z,995.32
2018-11-12T05:27:19.194Z,995.28
2018-11-12T05:28:19.221Z,995.20
2018-11-12T05:29:19.249Z,995.21
2018-11-12T05:30:19.279Z,995.25
2018-11-12T05:31:19.308Z,995.25
2018-11-12T05:32:19.341Z,995.21
2018-11-12T05:33:19.364Z,995.16
2018-11-12T05:34:19.393Z,995.25
2018-11-12T05:35:19.428Z,995.25
2018-11-12T05:36:19.451Z,995.18
2018-11-12T05:37:19.478Z,995.13
2018-11-12T05:38:19.584Z,995.16
2018-11-12T05:39:19.585Z,995.21
2018-11-12T05:40:19.562Z,995.30
2018-11-12T05:41:19.591Z,995.26
2018-11-12T05:42:19.620Z,995.21
2018-11-12T05:43:19.648Z,995.18
2018-11-12T05:44:19.681Z,995.14
2018-11-12T05:45:19.703Z,995.25
2018-11-12T05:46:19.782Z,995.28
2018-11-12T05:47:19.760Z,995.30
2018-11-12T05:48:19.792Z,995.26
2018-11-12T05:49:19.816Z,995.31
2018-11-12T05:50:19.851Z,995.31
2018-11-12T05:51:19.886Z,995.34
2018-11-12T05:52:19.902Z,995.35
2018-11-12T05:53:19.929Z,995.40
2018-11-12T05:54:19.958Z,995.40
2018-11-12T05:55:19.988Z,995.40
2018-11-12T05:56:20.013Z,995.40
2018-11-12T05:57:20.043Z,995.40
2018-11-12T05:58:20.072Z,995.43
2018-11-12T05:59:20.098Z,995.41
2018-11-12T06:00:20.126Z,995.46
2018-11-12T06:01:20.155Z,995.49
2018-11-12T06:02:20.184Z,995.51
2018-11-12T06:03:20.218Z,995.51
2018-11-12T06:04:20.239Z,995.51
2018-11-12T06:05:20.268Z,995.48
2018-11-12T06:06:20.299Z,995.48
2018-11-12T06:07:20.325Z,995.51
2018-11-12T06:08:20.353Z,995.57
2018-11-12T06:09:20.385Z,995.54
2018-11-12T06:10:20.410Z,995.57
2018-11-12T06:11:20.438Z,995.60
2018-11-12T06:12:20.466Z,995.60
2018-11-12T06:13:20.494Z,995.64
2018-11-12T06:14:20.522Z,995.71
2018-11-12T06:15:20.553Z,995.71
2018-11-12T06:16:20.576Z,995.73
2018-11-12T06:17:20.606Z,995.78
2018-11-12T06:18:20.635Z,995.77
2018-11-12T06:19:20.662Z,995.72
2018-11-12T06:20:20.690Z,995.78
2018-11-12T06:21:20.720Z,995.78
2018-11-12T06:22:20.746Z,995.78
2018-11-12T06:23:20.773Z,995.79
2018-11-12T06:24:20.802Z,995.89
2018-11-12T06:25:20.829Z,995.93
2018-11-12T06:26:20.859Z,995.95
2018-11-12T06:27:20.886Z,995.98
2018-11-12T06:28:20.916Z,995.97
2018-11-12T06:29:20.943Z,996.00
2018-11-12T06:30:20.969Z,996.03
2018-11-12T06:31:21.119Z,996.03
2018-11-12T06:32:21.025Z,996.09
2018-11-12T06:33:21.054Z,996.12
2018-11-12T06:34:21.081Z,996.11
2018-11-12T06:35:21.115Z,996.17
2018-11-12T06:36:21.137Z,996.12
2018-11-12T06:37:21.165Z,996.11
2018-11-12T06:38:21.193Z,996.20
2018-11-12T06:39:21.221Z,996.20
2018-11-12T06:40:21.248Z,996.20
2018-11-12T06:41:21.326Z,996.17
2018-11-12T06:42:21.349Z,996.20
2018-11-12T06:43:21.333Z,996.25
2018-11-12T06:44:21.361Z,996.25
2018-11-12T06:45:21.387Z,996.27
2018-11-12T06:46:21.417Z,996.29
2018-11-12T06:47:21.445Z,996.39
2018-11-12T06:48:21.503Z,996.36
2018-11-12T06:49:21.498Z,996.39
2018-11-12T06:50:21.528Z,996.37
2018-11-12T06:51:21.555Z,996.38
2018-11-12T06:52:21.585Z,996.38
2018-11-12T06:53:21.652Z,996.42
2018-11-12T06:54:21.638Z,996.43
2018-11-12T06:55:21.671Z,996.39
2018-11-12T06:56:21.694Z,996.34
2018-11-12T06:57:21.722Z,996.39
2018-11-12T06:58:21.749Z,996.46
2018-11-12T06:59:21.778Z,996.42
2018-11-12T07:00:21.806Z,996.47
2018-11-12T07:01:21.834Z,996.47
2018-11-12T07:02:21.863Z,996.47
2018-11-12T07:03:21.891Z,996.47
2018-11-12T07:04:21.922Z,996.50
2018-11-12T07:05:21.946Z,996.56
2018-11-12T07:06:21.980Z,996.56
2018-11-12T07:07:22.002Z,996.60
2018-11-12T07:08:22.031Z,996.64
2018-11-12T07:09:22.060Z,996.65
2018-11-12T07:10:22.085Z,996.69
2018-11-12T07:11:22.115Z,996.71
2018-11-12T07:12:22.142Z,996.77
2018-11-12T07:13:22.289Z,996.74
2018-11-12T07:14:22.199Z,996.82
2018-11-12T07:15:22.229Z,996.82
2018-11-12T07:16:22.269Z,996.85
2018-11-12T07:17:22.284Z,996.79
2018-11-12T07:18:22.313Z,996.76
2018-11-12T07:19:22.343Z,996.68
2018-11-12T07:20:22.372Z,996.72
2018-11-12T07:21:22.399Z,996.62
2018-11-12T07:22:22.427Z,996.54
2018-11-12T07:23:22.456Z,996.52
2018-11-12T07:24:22.485Z,996.56
2018-11-12T07:25:22.591Z,996.59
2018-11-12T07:26:22.544Z,996.54
2018-11-12T07:27:22.573Z,996.61
2018-11-12T07:28:22.601Z,996.64
2018-11-12T07:29:22.630Z,996.56
2018-11-12T07:30:22.658Z,996.58
2018-11-12T07:31:22.741Z,996.59
2018-11-12T07:32:22.718Z,996.57
2018-11-12T07:33:22.747Z,996.60
2018-11-12T07:34:22.775Z,996.60
2018-11-12T07:35:22.804Z,996.56
2018-11-12T07:36:22.832Z,996.58
2018-11-12T07:37:22.860Z,996.59
2018-11-12T07:38:22.892Z,996.79
2018-11-12T07:39:22.918Z,996.81
2018-11-12T07:40:22.945Z,996.81
2018-11-12T07:41:22.975Z,996.89
2018-11-12T07:42:23.005Z,996.89
2018-11-12T07:43:23.037Z,996.88
2018-11-12T07:44:23.061Z,996.92
2018-11-12T07:45:23.091Z,997.00
2018-11-12T07:46:23.121Z,997.01
2018-11-12T07:47:23.156Z,996.92
2018-11-12T07:48:23.179Z,996.81
2018-11-12T07:49:23.210Z,997.02
2018-11-12T07:50:23.239Z,997.03
2018-11-12T07:51:23.283Z,997.07
2018-11-12T07:52:23.304Z,997.03
2018-11-12T07:53:23.331Z,996.78
2018-11-12T07:54:23.415Z,996.80
2018-11-12T07:55:23.392Z,996.82
2018-11-12T07:56:23.499Z,996.83
2018-11-12T07:57:23.453Z,997.17
2018-11-12T07:58:23.484Z,997.15
2018-11-12T07:59:23.515Z,997.13
2018-11-12T08:00:23.546Z,997.11
2018-11-12T08:01:23.576Z,997.06
2018-11-12T08:02:23.608Z,997.01
2018-11-12T08:03:23.647Z,997.03
2018-11-12T08:04:23.668Z,997.07
2018-11-12T08:05:23.701Z,997.04
2018-11-12T08:06:23.733Z,997.04
2018-11-12T08:07:23.764Z,997.05
2018-11-12T08:08:23.796Z,996.96
2018-11-12T08:09:23.892Z,996.98
2018-11-12T08:10:23.860Z,996.97
2018-11-12T08:11:23.893Z,996.97
2018-11-12T08:12:23.925Z,997.05
2018-11-12T08:13:23.958Z,996.83
2018-11-12T08:14:24.031Z,997.04
2018-11-12T08:15:24.026Z,997.24
2018-11-12T08:16:24.056Z,997.22
2018-11-12T08:17:24.125Z,997.19
2018-11-12T08:18:24.123Z,997.22
2018-11-12T08:19:24.160Z,997.13
2018-11-12T08:20:24.190Z,997.17
2018-11-12T08:21:24.225Z,997.16
2018-11-12T08:22:24.259Z,997.21
2018-11-12T08:23:24.293Z,997.09
2018-11-12T08:24:24.452Z,996.84
2018-11-12T08:25:24.360Z,996.85
2018-11-12T08:26:24.396Z,997.01
2018-11-12T08:27:24.546Z,997.26
2018-11-12T08:28:24.464Z,997.17
2018-11-12T08:29:24.499Z,996.95
2018-11-12T08:30:24.624Z,996.77
2018-11-12T08:31:24.571Z,997.02
2018-11-12T08:32:24.605Z,997.26
2018-11-12T08:33:24.640Z,997.34
2018-11-12T08:34:24.675Z,997.35
2018-11-12T08:35:24.712Z,997.36
2018-11-12T08:36:24.820Z,997.34
2018-11-12T08:37:24.784Z,997.26
2018-11-12T08:38:24.821Z,997.30
2018-11-12T08:39:24.962Z,997.37
2018-11-12T08:40:24.981Z,997.46
2018-11-12T08:41:24.926Z,996.76
2018-11-12T08:42:24.968Z,996.80
2018-11-12T08:43:24.998Z,997.42
2018-11-12T08:44:25.035Z,997.00
2018-11-12T08:45:25.073Z,996.54
2018-11-12T08:46:25.108Z,996.71
2018-11-12T08:47:25.145Z,997.46
2018-11-12T08:48:25.266Z,997.53
2018-11-12T08:49:25.365Z,996.74
2018-11-12T08:50:25.255Z,996.77
2018-11-12T08:51:25.293Z,996.81
2018-11-12T08:52:25.329Z,997.49
2018-11-12T08:53:25.367Z,997.01
2018-11-12T08:54:25.408Z,997.03
2018-11-12T08:55:25.508Z,997.50
2018-11-12T08:56:25.475Z,997.51
2018-11-12T08:57:25.513Z,997.61
2018-11-12T08:58:25.550Z,997.54
2018-11-12T08:59:25.596Z,997.50
2018-11-12T09:00:25.624Z,997.48
2018-11-12T09:01:25.666Z,997.57
2018-11-12T09:02:25.701Z,997.00
2018-11-12T09:03:25.740Z,997.55
2018-11-12T09:04:25.776Z,997.52
2018-11-12T09:05:25.813Z,997.51
2018-11-12T09:06:25.853Z,997.52
2018-11-12T09:07:25.940Z,997.58
2018-11-12T09:08:25.929Z,997.59
2018-11-12T09:09:25.968Z,997.56
2018-11-12T09:10:26.008Z,997.54
2018-11-12T09:11:26.048Z,997.55
2018-11-12T09:12:26.085Z,997.60
2018-11-12T09:13:26.125Z,997.02
2018-11-12T09:14:26.166Z,997.69
2018-11-12T09:15:26.263Z,997.08
2018-11-12T09:16:26.244Z,997.80
2018-11-12T09:17:26.283Z,997.69
2018-11-12T09:18:26.326Z,997.75
2018-11-12T09:19:26.363Z,997.76
2018-11-12T09:20:26.436Z,996.69
2018-11-12T09:21:26.444Z,996.73
2018-11-12T09:22:26.483Z,997.80
2018-11-12T09:23:26.527Z,997.78
2018-11-12T09:24:26.638Z,997.73
2018-11-12T09:25:26.605Z,997.78
2018-11-12T09:26:26.644Z,997.81
2018-11-12T09:27:26.686Z,997.87
2018-11-12T09:28:26.726Z,997.09
2018-11-12T09:29:26.846Z,997.64
2018-11-12T09:30:26.807Z,997.89
2018-11-12T09:31:27.343Z,997.92
2018-11-12T09:32:26.908Z,997.99
2018-11-12T09:33:26.930Z,998.10
2018-11-12T09:34:26.972Z,997.99
2018-11-12T09:35:27.016Z,998.10
2018-11-12T09:36:27.057Z,997.60
2018-11-12T09:37:27.166Z,998.05
2018-11-12T09:38:27.192Z,998.13
2018-11-12T09:39:27.203Z,998.19
2018-11-12T09:40:27.222Z,997.39
2018-11-12T09:41:27.348Z,997.88
2018-11-12T09:42:27.328Z,997.00
2018-11-12T09:43:27.351Z,997.04
2018-11-12T09:44:27.392Z,997.04
2018-11-12T09:45:27.481Z,997.03
2018-11-12T09:46:27.477Z,997.08
2018-11-12T09:47:27.521Z,997.27
2018-11-12T09:48:27.561Z,996.98
2018-11-12T09:49:27.615Z,996.90
2018-11-12T09:50:27.646Z,996.93
2018-11-12T09:51:27.688Z,996.89
2018-11-12T09:52:27.731Z,996.99
2018-11-12T09:53:27.798Z,996.97
2018-11-12T09:54:27.943Z,996.93
2018-11-12T09:55:27.851Z,996.97
2018-11-12T09:56:27.892Z,996.95
2018-11-12T09:57:27.930Z,996.94
2018-11-12T09:58:27.971Z,996.99
2018-11-12T09:59:28.077Z,997.00
2018-11-12T10:00:28.196Z,997.01
2018-11-12T10:01:28.388Z,997.04
2018-11-12T10:02:28.911Z,997.03
2018-11-12T10:03:28.741Z,997.01
2018-11-12T10:04:29.334Z,997.04
2018-11-12T10:05:29.575Z,997.04
2018-11-12T10:06:29.538Z,997.09
2018-11-12T10:07:30.037Z,997.05
2018-11-12T10:08:30.308Z,997.02
2018-11-12T10:09:29.878Z,997.06
2018-11-12T10:10:31.350Z,997.07
2018-11-12T10:11:30.592Z,997.07
2018-11-12T10:12:32.023Z,997.12
2018-11-12T10:13:30.965Z,997.11
2018-11-12T10:14:31.143Z,997.11
2018-11-12T10:15:32.516Z,997.08
2018-11-12T10:16:32.382Z,997.08
2018-11-12T10:17:31.556Z,997.13
2018-11-12T10:18:28.738Z,997.10
2018-11-12T10:19:28.811Z,997.08
2018-11-12T10:20:28.810Z,997.06
2018-11-12T10:21:28.848Z,997.07
2018-11-12T10:22:28.885Z,997.07
2018-11-12T10:23:28.922Z,997.11
2018-11-12T10:24:28.959Z,997.17
2018-11-12T10:25:28.995Z,997.18
2018-11-12T10:26:29.083Z,997.14
2018-11-12T10:27:29.071Z,997.12
2018-11-12T10:28:29.111Z,997.13
2018-11-12T10:29:29.145Z,997.17
2018-11-12T10:30:29.182Z,997.72
2018-11-12T10:31:29.217Z,997.35
2018-11-12T10:32:29.254Z,997.13
2018-11-12T10:33:29.291Z,997.09
2018-11-12T10:34:29.329Z,997.04
2018-11-12T10:35:29.365Z,997.05
2018-11-12T10:36:29.401Z,997.03
2018-11-12T10:37:29.439Z,997.06
2018-11-12T10:38:29.477Z,997.17
2018-11-12T10:39:29.513Z,997.03
2018-11-12T10:40:29.549Z,997.00
2018-11-12T10:41:29.587Z,996.92
2018-11-12T10:42:29.628Z,996.97
2018-11-12T10:43:29.661Z,997.05
2018-11-12T10:44:29.698Z,997.02
2018-11-12T10:45:29.733Z,997.04
2018-11-12T10:46:29.771Z,997.11
2018-11-12T10:47:29.809Z,997.00
2018-11-12T10:48:29.921Z,996.94
2018-11-12T10:49:29.880Z,996.92
2018-11-12T10:50:29.923Z,996.97
2018-11-12T10:51:29.981Z,997.00
2018-11-12T10:52:29.992Z,998.05
2018-11-12T10:53:30.031Z,997.04
2018-11-12T10:54:30.171Z,996.92
2018-11-12T10:55:30.361Z,996.92
2018-11-12T10:56:30.137Z,996.87
2018-11-12T10:57:30.175Z,996.83
2018-11-12T10:58:30.339Z,996.82
2018-11-12T10:59:30.278Z,996.85
2018-11-12T11:00:30.288Z,996.83
2018-11-12T11:01:30.320Z,996.79
2018-11-12T11:02:30.357Z,996.80
2018-11-12T11:03:30.393Z,996.85
2018-11-12T11:04:30.428Z,996.91
2018-11-12T11:05:30.469Z,996.92
2018-11-12T11:06:30.502Z,996.89
2018-11-12T11:07:30.540Z,996.91
2018-11-12T11:08:30.573Z,996.91
2018-11-12T11:09:30.610Z,996.91
2018-11-12T11:10:30.647Z,996.91
2018-11-12T11:11:30.682Z,996.93
2018-11-12T11:12:30.716Z,996.95
2018-11-12T11:13:30.753Z,996.94
2018-11-12T11:14:30.790Z,996.89
2018-11-12T11:15:30.849Z,996.93
2018-11-12T11:16:30.860Z,996.99
2018-11-12T11:17:30.895Z,996.97
2018-11-12T11:18:30.931Z,996.97
2018-11-12T11:19:31.004Z,996.99
2018-11-12T11:20:31.002Z,996.97
2018-11-12T11:21:31.039Z,996.94
2018-11-12T11:22:31.073Z,996.90
2018-11-12T11:23:31.111Z,996.88
2018-11-12T11:24:31.144Z,996.93
2018-11-12T11:25:31.186Z,996.95
2018-11-12T11:26:31.238Z,996.93
2018-11-12T11:27:31.249Z,996.91
2018-11-12T11:28:31.284Z,996.91
2018-11-12T11:29:31.362Z,996.96
2018-11-12T11:30:31.371Z,996.97
2018-11-12T11:31:31.391Z,996.98
2018-11-12T11:32:31.424Z,996.96
2018-11-12T11:33:31.459Z,996.97
2018-11-12T11:34:31.495Z,996.99
2018-11-12T11:35:31.530Z,996.99
2018-11-12T11:36:31.566Z,997.02
2018-11-12T11:37:31.599Z,997.02
2018-11-12T11:38:31.635Z,997.04
2018-11-12T11:39:31.670Z,997.03
2018-11-12T11:40:31.731Z,997.06
2018-11-12T11:41:31.740Z,997.06
2018-11-12T11:42:31.776Z,997.04
2018-11-12T11:43:31.811Z,997.04
2018-11-12T11:44:31.845Z,997.07
2018-11-12T11:45:31.879Z,997.06
2018-11-12T11:46:31.918Z,997.06
2018-11-12T11:47:32.153Z,997.07
2018-11-12T11:48:31.984Z,997.06
2018-11-12T11:49:32.021Z,997.09
2018-11-12T11:50:32.111Z,997.10
2018-11-12T11:51:32.095Z,997.20
2018-11-12T11:52:32.125Z,997.16
2018-11-12T11:53:32.161Z,997.19
2018-11-12T11:54:32.196Z,997.18
2018-11-12T11:55:32.235Z,997.18
2018-11-12T11:56:32.388Z,997.19
2018-11-12T11:57:32.500Z,997.13
2018-11-12T11:58:32.362Z,997.10
2018-11-12T11:59:32.410Z,997.11
2018-11-12T12:00:32.411Z,997.09
2018-11-12T12:01:32.461Z,997.13
2018-11-12T12:02:32.480Z,997.13
2018-11-12T12:03:32.515Z,997.12
2018-11-12T12:04:32.549Z,997.12
2018-11-12T12:05:32.590Z,997.10
2018-11-12T12:06:32.622Z,997.15
2018-11-12T12:07:32.656Z,997.20
2018-11-12T12:08:32.744Z,997.18
2018-11-12T12:09:32.727Z,997.17
2018-11-12T12:10:32.763Z,997.14
2018-11-12T12:11:32.799Z,997.19
2018-11-12T12:12:32.832Z,997.25
2018-11-12T12:13:32.874Z,997.30
2018-11-12T12:14:32.905Z,997.32
2018-11-12T12:15:32.943Z,997.34
2018-11-12T12:16:32.974Z,997.37
2018-11-12T12:17:33.052Z,997.32
2018-11-12T12:18:33.061Z,997.30
2018-11-12T12:19:33.092Z,997.20
2018-11-12T12:20:33.117Z,997.19
2018-11-12T12:21:33.153Z,997.18
2018-11-12T12:22:33.189Z,997.15
2018-11-12T12:23:33.230Z,997.13
2018-11-12T12:24:33.320Z,997.10
2018-11-12T12:25:33.478Z,997.14
2018-11-12T12:26:33.355Z,997.12
2018-11-12T12:27:33.372Z,997.12
2018-11-12T12:28:33.404Z,997.11